sensor_id;sensor_type;location;lat;lon;timestamp;P1;durP1;ratioP1;P2;durP2;ratioP2
62861;SDS011;48953;53.110;5.592;2023-03-01T00:01:05;39.05;;;14.13;;
62861;SDS011;48953;53.110;5.592;2023-03-01T00:03:32;27.77;;;12.85;;
62861;SDS011;48953;53.110;5.592;2023-03-01T00:05:58;29.98;;;13.20;;
62861;SDS011;48953;53.110;5.592;2023-03-01T00:08:24;22.30;;;11.70;;
62861;SDS011;48953;53.110;5.592;2023-03-01T00:11:04;28.63;;;12.02;;
62861;SDS011;48953;53.110;5.592;2023-03-01T00:13:30;25.15;;;12.45;;
62861;SDS011;48953;53.110;5.592;2023-03-01T00:15:56;26.30;;;12.07;;
62861;SDS011;48953;53.110;5.592;2023-03-01T00:18:22;23.73;;;13.07;;
62861;SDS011;48953;53.110;5.592;2023-03-01T00:20:49;26.40;;;13.40;;
62861;SDS011;48953;53.110;5.592;2023-03-01T00:23:16;28.65;;;14.50;;
62861;SDS011;48953;53.110;5.592;2023-03-01T00:25:42;34.17;;;14.18;;
62861;SDS011;48953;53.110;5.592;2023-03-01T00:28:08;28.70;;;14.13;;
62861;SDS011;48953;53.110;5.592;2023-03-01T00:30:34;31.38;;;14.55;;
62861;SDS011;48953;53.110;5.592;2023-03-01T00:33:00;30.27;;;13.73;;
62861;SDS011;48953;53.110;5.592;2023-03-01T00:35:26;25.58;;;12.60;;
62861;SDS011;48953;53.110;5.592;2023-03-01T00:37:52;26.02;;;11.90;;
62861;SDS011;48953;53.110;5.592;2023-03-01T00:40:19;24.38;;;10.10;;
62861;SDS011;48953;53.110;5.592;2023-03-01T00:42:45;20.52;;;10.18;;
62861;SDS011;48953;53.110;5.592;2023-03-01T00:45:11;19.15;;;9.30;;
62861;SDS011;48953;53.110;5.592;2023-03-01T00:47:38;27.20;;;8.45;;
62861;SDS011;48953;53.110;5.592;2023-03-01T00:50:04;17.25;;;8.07;;
62861;SDS011;48953;53.110;5.592;2023-03-01T00:52:30;17.42;;;8.70;;
62861;SDS011;48953;53.110;5.592;2023-03-01T00:54:56;14.80;;;8.50;;
62861;SDS011;48953;53.110;5.592;2023-03-01T00:57:22;23.58;;;8.45;;
62861;SDS011;48953;53.110;5.592;2023-03-01T00:59:48;21.85;;;8.55;;
62861;SDS011;48953;53.110;5.592;2023-03-01T01:02:14;16.65;;;7.40;;
62861;SDS011;48953;53.110;5.592;2023-03-01T01:04:40;16.05;;;6.13;;
62861;SDS011;48953;53.110;5.592;2023-03-01T01:07:06;19.60;;;6.43;;
62861;SDS011;48953;53.110;5.592;2023-03-01T01:09:32;26.45;;;7.25;;
62861;SDS011;48953;53.110;5.592;2023-03-01T01:11:59;34.05;;;8.30;;
62861;SDS011;48953;53.110;5.592;2023-03-01T01:14:25;33.50;;;8.50;;
62861;SDS011;48953;53.110;5.592;2023-03-01T01:16:51;22.23;;;8.15;;
62861;SDS011;48953;53.110;5.592;2023-03-01T01:19:17;15.75;;;8.30;;
62861;SDS011;48953;53.110;5.592;2023-03-01T01:21:43;16.70;;;8.55;;
62861;SDS011;48953;53.110;5.592;2023-03-01T01:24:20;11.35;;;6.88;;
62861;SDS011;48953;53.110;5.592;2023-03-01T01:26:47;15.95;;;7.95;;
62861;SDS011;48953;53.110;5.592;2023-03-01T01:29:13;11.85;;;7.60;;
62861;SDS011;48953;53.110;5.592;2023-03-01T01:31:40;15.35;;;6.57;;
62861;SDS011;48953;53.110;5.592;2023-03-01T01:34:07;11.73;;;5.15;;
62861;SDS011;48953;53.110;5.592;2023-03-01T01:36:33;9.38;;;5.18;;
62861;SDS011;48953;53.110;5.592;2023-03-01T01:39:00;8.52;;;4.55;;
62861;SDS011;48953;53.110;5.592;2023-03-01T01:41:27;10.50;;;5.50;;
62861;SDS011;48953;53.110;5.592;2023-03-01T01:44:16;16.58;;;5.80;;
62861;SDS011;48953;53.110;5.592;2023-03-01T01:46:47;15.38;;;5.72;;
62861;SDS011;48953;53.110;5.592;2023-03-01T01:49:17;26.80;;;7.53;;
62861;SDS011;48953;53.110;5.592;2023-03-01T01:51:45;20.02;;;7.30;;
62861;SDS011;48953;53.110;5.592;2023-03-01T01:54:20;32.22;;;6.70;;
62861;SDS011;48953;53.110;5.592;2023-03-01T01:56:48;34.50;;;7.30;;
62861;SDS011;48953;53.110;5.592;2023-03-01T01:59:15;33.22;;;7.05;;
62861;SDS011;48953;53.110;5.592;2023-03-01T02:01:42;21.23;;;6.72;;
62861;SDS011;48953;53.110;5.592;2023-03-01T02:04:08;35.97;;;6.88;;
62861;SDS011;48953;53.110;5.592;2023-03-01T02:09:45;29.05;;;7.68;;
62861;SDS011;48953;53.110;5.592;2023-03-01T02:12:12;28.02;;;9.50;;
62861;SDS011;48953;53.110;5.592;2023-03-01T02:14:39;32.22;;;9.85;;
62861;SDS011;48953;53.110;5.592;2023-03-01T02:17:05;50.42;;;13.63;;
62861;SDS011;48953;53.110;5.592;2023-03-01T02:19:35;25.75;;;10.40;;
62861;SDS011;48953;53.110;5.592;2023-03-01T02:22:08;33.00;;;9.95;;
62861;SDS011;48953;53.110;5.592;2023-03-01T02:27:09;28.15;;;8.32;;
62861;SDS011;48953;53.110;5.592;2023-03-01T02:29:35;32.10;;;9.38;;
62861;SDS011;48953;53.110;5.592;2023-03-01T02:32:02;33.05;;;7.43;;
62861;SDS011;48953;53.110;5.592;2023-03-01T02:34:28;26.48;;;7.70;;
62861;SDS011;48953;53.110;5.592;2023-03-01T02:37:05;21.15;;;6.97;;
62861;SDS011;48953;53.110;5.592;2023-03-01T02:39:34;12.52;;;6.32;;
62861;SDS011;48953;53.110;5.592;2023-03-01T02:42:06;15.30;;;6.95;;
62861;SDS011;48953;53.110;5.592;2023-03-01T02:44:32;12.95;;;6.22;;
62861;SDS011;48953;53.110;5.592;2023-03-01T02:47:00;14.45;;;6.05;;
62861;SDS011;48953;53.110;5.592;2023-03-01T02:49:27;15.65;;;5.95;;
62861;SDS011;48953;53.110;5.592;2023-03-01T02:54:58;15.85;;;6.38;;
62861;SDS011;48953;53.110;5.592;2023-03-01T02:57:26;11.48;;;5.88;;
62861;SDS011;48953;53.110;5.592;2023-03-01T02:59:54;10.70;;;5.88;;
62861;SDS011;48953;53.110;5.592;2023-03-01T03:02:21;24.05;;;6.90;;
62861;SDS011;48953;53.110;5.592;2023-03-01T03:05:02;16.60;;;7.22;;
62861;SDS011;48953;53.110;5.592;2023-03-01T03:07:27;12.57;;;6.25;;
62861;SDS011;48953;53.110;5.592;2023-03-01T03:09:53;14.68;;;7.13;;
62861;SDS011;48953;53.110;5.592;2023-03-01T03:12:19;14.23;;;6.32;;
62861;SDS011;48953;53.110;5.592;2023-03-01T03:14:45;14.13;;;6.82;;
62861;SDS011;48953;53.110;5.592;2023-03-01T03:17:12;18.33;;;7.53;;
62861;SDS011;48953;53.110;5.592;2023-03-01T03:19:38;13.73;;;6.55;;
62861;SDS011;48953;53.110;5.592;2023-03-01T03:22:04;15.35;;;7.10;;
62861;SDS011;48953;53.110;5.592;2023-03-01T03:24:30;19.70;;;7.30;;
62861;SDS011;48953;53.110;5.592;2023-03-01T03:27:03;17.42;;;6.85;;
62861;SDS011;48953;53.110;5.592;2023-03-01T03:29:29;20.30;;;8.50;;
62861;SDS011;48953;53.110;5.592;2023-03-01T03:31:54;21.13;;;8.10;;
62861;SDS011;48953;53.110;5.592;2023-03-01T03:34:29;17.70;;;7.03;;
62861;SDS011;48953;53.110;5.592;2023-03-01T03:37:07;29.27;;;8.77;;
62861;SDS011;48953;53.110;5.592;2023-03-01T03:39:52;36.85;;;8.60;;
62861;SDS011;48953;53.110;5.592;2023-03-01T03:42:20;17.88;;;6.85;;
62861;SDS011;48953;53.110;5.592;2023-03-01T03:44:46;40.50;;;9.13;;
62861;SDS011;48953;53.110;5.592;2023-03-01T03:47:12;24.20;;;7.45;;
62861;SDS011;48953;53.110;5.592;2023-03-01T03:49:38;24.85;;;7.43;;
62861;SDS011;48953;53.110;5.592;2023-03-01T03:52:04;24.38;;;8.05;;
62861;SDS011;48953;53.110;5.592;2023-03-01T03:54:38;30.20;;;9.15;;
62861;SDS011;48953;53.110;5.592;2023-03-01T03:57:04;23.10;;;8.88;;
62861;SDS011;48953;53.110;5.592;2023-03-01T03:59:30;20.77;;;8.88;;
62861;SDS011;48953;53.110;5.592;2023-03-01T04:01:56;28.25;;;9.77;;
62861;SDS011;48953;53.110;5.592;2023-03-01T04:04:22;18.13;;;6.05;;
62861;SDS011;48953;53.110;5.592;2023-03-01T04:06:48;65.72;;;12.63;;
62861;SDS011;48953;53.110;5.592;2023-03-01T04:09:14;36.55;;;9.27;;
62861;SDS011;48953;53.110;5.592;2023-03-01T04:11:40;44.75;;;10.45;;
62861;SDS011;48953;53.110;5.592;2023-03-01T04:14:06;41.75;;;11.32;;
62861;SDS011;48953;53.110;5.592;2023-03-01T04:16:38;57.75;;;12.55;;
62861;SDS011;48953;53.110;5.592;2023-03-01T04:19:11;50.58;;;11.68;;
62861;SDS011;48953;53.110;5.592;2023-03-01T04:21:37;66.95;;;13.70;;
62861;SDS011;48953;53.110;5.592;2023-03-01T04:24:04;32.13;;;9.80;;
62861;SDS011;48953;53.110;5.592;2023-03-01T04:26:30;42.83;;;10.38;;
62861;SDS011;48953;53.110;5.592;2023-03-01T04:28:55;31.10;;;9.52;;
62861;SDS011;48953;53.110;5.592;2023-03-01T04:31:21;28.30;;;7.53;;
62861;SDS011;48953;53.110;5.592;2023-03-01T04:33:56;21.30;;;7.28;;
62861;SDS011;48953;53.110;5.592;2023-03-01T04:36:24;22.63;;;7.55;;
62861;SDS011;48953;53.110;5.592;2023-03-01T04:38:50;16.83;;;7.22;;
62861;SDS011;48953;53.110;5.592;2023-03-01T04:41:17;37.70;;;8.43;;
62861;SDS011;48953;53.110;5.592;2023-03-01T04:43:43;27.38;;;5.60;;
62861;SDS011;48953;53.110;5.592;2023-03-01T04:46:13;26.30;;;6.60;;
62861;SDS011;48953;53.110;5.592;2023-03-01T04:48:40;173.60;;;16.67;;
62861;SDS011;48953;53.110;5.592;2023-03-01T04:51:06;11.65;;;6.05;;
62861;SDS011;48953;53.110;5.592;2023-03-01T04:53:33;14.15;;;6.45;;
62861;SDS011;48953;53.110;5.592;2023-03-01T04:56:01;26.95;;;6.47;;
62861;SDS011;48953;53.110;5.592;2023-03-01T04:58:27;20.90;;;7.20;;
62861;SDS011;48953;53.110;5.592;2023-03-01T05:00:53;13.25;;;6.47;;
62861;SDS011;48953;53.110;5.592;2023-03-01T05:03:34;17.85;;;5.78;;
62861;SDS011;48953;53.110;5.592;2023-03-01T05:06:00;15.32;;;7.35;;
62861;SDS011;48953;53.110;5.592;2023-03-01T05:08:26;25.27;;;8.30;;
62861;SDS011;48953;53.110;5.592;2023-03-01T05:10:53;23.80;;;8.40;;
62861;SDS011;48953;53.110;5.592;2023-03-01T05:13:20;19.77;;;6.85;;
62861;SDS011;48953;53.110;5.592;2023-03-01T05:15:59;19.02;;;5.65;;
62861;SDS011;48953;53.110;5.592;2023-03-01T05:18:26;13.32;;;5.65;;
62861;SDS011;48953;53.110;5.592;2023-03-01T05:20:53;16.02;;;6.22;;
62861;SDS011;48953;53.110;5.592;2023-03-01T05:23:23;17.17;;;6.00;;
62861;SDS011;48953;53.110;5.592;2023-03-01T05:25:49;18.90;;;6.10;;
62861;SDS011;48953;53.110;5.592;2023-03-01T05:28:18;11.85;;;5.55;;
62861;SDS011;48953;53.110;5.592;2023-03-01T05:30:44;28.40;;;5.70;;
62861;SDS011;48953;53.110;5.592;2023-03-01T05:33:10;17.23;;;6.22;;
62861;SDS011;48953;53.110;5.592;2023-03-01T05:35:39;17.73;;;6.03;;
62861;SDS011;48953;53.110;5.592;2023-03-01T05:38:05;19.70;;;6.35;;
62861;SDS011;48953;53.110;5.592;2023-03-01T05:40:32;15.50;;;5.78;;
62861;SDS011;48953;53.110;5.592;2023-03-01T05:42:58;13.35;;;5.95;;
62861;SDS011;48953;53.110;5.592;2023-03-01T05:45:26;18.45;;;7.40;;
62861;SDS011;48953;53.110;5.592;2023-03-01T05:47:52;13.32;;;6.00;;
62861;SDS011;48953;53.110;5.592;2023-03-01T05:52:49;13.23;;;4.65;;
62861;SDS011;48953;53.110;5.592;2023-03-01T05:55:16;16.02;;;5.20;;
62861;SDS011;48953;53.110;5.592;2023-03-01T05:57:43;16.00;;;5.43;;
62861;SDS011;48953;53.110;5.592;2023-03-01T06:00:09;5.60;;;3.83;;
62861;SDS011;48953;53.110;5.592;2023-03-01T06:02:36;8.57;;;3.88;;
62861;SDS011;48953;53.110;5.592;2023-03-01T06:05:03;8.50;;;4.65;;
62861;SDS011;48953;53.110;5.592;2023-03-01T06:07:29;9.88;;;6.03;;
62861;SDS011;48953;53.110;5.592;2023-03-01T06:09:55;15.18;;;5.75;;
62861;SDS011;48953;53.110;5.592;2023-03-01T06:12:21;14.63;;;5.88;;
62861;SDS011;48953;53.110;5.592;2023-03-01T06:14:46;13.13;;;6.22;;
62861;SDS011;48953;53.110;5.592;2023-03-01T06:17:13;11.25;;;5.70;;
62861;SDS011;48953;53.110;5.592;2023-03-01T06:19:39;14.52;;;5.93;;
62861;SDS011;48953;53.110;5.592;2023-03-01T06:22:05;11.45;;;6.05;;
62861;SDS011;48953;53.110;5.592;2023-03-01T06:24:31;8.55;;;5.22;;
62861;SDS011;48953;53.110;5.592;2023-03-01T06:27:12;8.70;;;5.30;;
62861;SDS011;48953;53.110;5.592;2023-03-01T06:29:40;16.83;;;7.18;;
62861;SDS011;48953;53.110;5.592;2023-03-01T06:32:06;10.57;;;5.70;;
62861;SDS011;48953;53.110;5.592;2023-03-01T06:34:33;11.93;;;5.53;;
62861;SDS011;48953;53.110;5.592;2023-03-01T06:36:59;12.98;;;5.68;;
62861;SDS011;48953;53.110;5.592;2023-03-01T06:39:25;9.48;;;5.97;;
62861;SDS011;48953;53.110;5.592;2023-03-01T06:41:53;10.07;;;5.45;;
62861;SDS011;48953;53.110;5.592;2023-03-01T06:44:19;12.85;;;6.25;;
62861;SDS011;48953;53.110;5.592;2023-03-01T06:46:45;12.30;;;6.07;;
62861;SDS011;48953;53.110;5.592;2023-03-01T06:49:11;18.73;;;6.68;;
62861;SDS011;48953;53.110;5.592;2023-03-01T06:51:37;24.42;;;8.05;;
62861;SDS011;48953;53.110;5.592;2023-03-01T06:54:03;36.58;;;14.88;;
62861;SDS011;48953;53.110;5.592;2023-03-01T06:56:30;18.65;;;8.25;;
62861;SDS011;48953;53.110;5.592;2023-03-01T06:58:56;16.98;;;7.40;;
62861;SDS011;48953;53.110;5.592;2023-03-01T07:01:22;21.05;;;8.00;;
62861;SDS011;48953;53.110;5.592;2023-03-01T07:03:48;27.05;;;10.05;;
62861;SDS011;48953;53.110;5.592;2023-03-01T07:06:14;27.42;;;9.40;;
62861;SDS011;48953;53.110;5.592;2023-03-01T07:08:40;37.78;;;13.63;;
62861;SDS011;48953;53.110;5.592;2023-03-01T07:13:56;24.93;;;7.50;;
62861;SDS011;48953;53.110;5.592;2023-03-01T07:16:23;17.60;;;6.95;;
62861;SDS011;48953;53.110;5.592;2023-03-01T07:18:49;14.32;;;6.78;;
62861;SDS011;48953;53.110;5.592;2023-03-01T07:21:15;21.50;;;7.90;;
62861;SDS011;48953;53.110;5.592;2023-03-01T07:23:41;12.75;;;6.35;;
62861;SDS011;48953;53.110;5.592;2023-03-01T07:26:07;15.90;;;6.95;;
62861;SDS011;48953;53.110;5.592;2023-03-01T07:28:33;13.45;;;6.72;;
62861;SDS011;48953;53.110;5.592;2023-03-01T07:31:03;15.75;;;6.82;;
62861;SDS011;48953;53.110;5.592;2023-03-01T07:33:29;17.58;;;6.03;;
62861;SDS011;48953;53.110;5.592;2023-03-01T07:35:55;12.82;;;6.05;;
62861;SDS011;48953;53.110;5.592;2023-03-01T07:38:21;21.83;;;7.15;;
62861;SDS011;48953;53.110;5.592;2023-03-01T07:40:47;29.35;;;9.55;;
62861;SDS011;48953;53.110;5.592;2023-03-01T07:43:13;18.65;;;7.90;;
62861;SDS011;48953;53.110;5.592;2023-03-01T07:45:39;20.20;;;7.05;;
62861;SDS011;48953;53.110;5.592;2023-03-01T07:48:05;15.38;;;7.05;;
62861;SDS011;48953;53.110;5.592;2023-03-01T07:50:31;12.55;;;6.20;;
62861;SDS011;48953;53.110;5.592;2023-03-01T07:52:58;15.23;;;6.88;;
62861;SDS011;48953;53.110;5.592;2023-03-01T07:55:24;12.40;;;6.90;;
62861;SDS011;48953;53.110;5.592;2023-03-01T07:57:50;14.82;;;7.47;;
62861;SDS011;48953;53.110;5.592;2023-03-01T08:00:16;11.15;;;6.63;;
62861;SDS011;48953;53.110;5.592;2023-03-01T08:02:42;9.27;;;6.57;;
62861;SDS011;48953;53.110;5.592;2023-03-01T08:05:08;11.93;;;5.78;;
62861;SDS011;48953;53.110;5.592;2023-03-01T08:07:35;8.65;;;5.03;;
62861;SDS011;48953;53.110;5.592;2023-03-01T08:10:01;9.60;;;5.15;;
62861;SDS011;48953;53.110;5.592;2023-03-01T08:12:27;16.23;;;5.05;;
62861;SDS011;48953;53.110;5.592;2023-03-01T08:14:53;8.73;;;5.32;;
62861;SDS011;48953;53.110;5.592;2023-03-01T08:17:19;6.72;;;4.03;;
62861;SDS011;48953;53.110;5.592;2023-03-01T08:19:45;7.60;;;4.32;;
62861;SDS011;48953;53.110;5.592;2023-03-01T08:22:11;9.70;;;4.72;;
62861;SDS011;48953;53.110;5.592;2023-03-01T08:24:37;6.72;;;4.70;;
62861;SDS011;48953;53.110;5.592;2023-03-01T08:27:03;9.63;;;4.93;;
62861;SDS011;48953;53.110;5.592;2023-03-01T08:29:33;9.88;;;5.25;;
62861;SDS011;48953;53.110;5.592;2023-03-01T08:31:59;10.27;;;5.97;;
62861;SDS011;48953;53.110;5.592;2023-03-01T08:34:25;6.70;;;5.60;;
62861;SDS011;48953;53.110;5.592;2023-03-01T08:39:26;7.60;;;5.85;;
62861;SDS011;48953;53.110;5.592;2023-03-01T08:41:52;11.52;;;6.35;;
62861;SDS011;48953;53.110;5.592;2023-03-01T08:44:18;7.32;;;5.60;;
62861;SDS011;48953;53.110;5.592;2023-03-01T08:46:46;6.13;;;5.00;;
62861;SDS011;48953;53.110;5.592;2023-03-01T08:49:13;10.77;;;5.88;;
62861;SDS011;48953;53.110;5.592;2023-03-01T08:51:39;6.95;;;5.47;;
62861;SDS011;48953;53.110;5.592;2023-03-01T08:54:07;9.63;;;6.68;;
62861;SDS011;48953;53.110;5.592;2023-03-01T08:56:33;9.70;;;6.88;;
62861;SDS011;48953;53.110;5.592;2023-03-01T08:58:59;9.35;;;7.13;;
62861;SDS011;48953;53.110;5.592;2023-03-01T09:01:25;10.68;;;7.60;;
62861;SDS011;48953;53.110;5.592;2023-03-01T09:03:51;10.88;;;7.93;;
62861;SDS011;48953;53.110;5.592;2023-03-01T09:06:17;12.50;;;8.80;;
62861;SDS011;48953;53.110;5.592;2023-03-01T09:08:45;13.05;;;9.23;;
62861;SDS011;48953;53.110;5.592;2023-03-01T09:11:14;13.23;;;9.13;;
62861;SDS011;48953;53.110;5.592;2023-03-01T09:13:41;10.98;;;8.02;;
62861;SDS011;48953;53.110;5.592;2023-03-01T09:16:07;12.32;;;8.55;;
62861;SDS011;48953;53.110;5.592;2023-03-01T09:18:34;11.52;;;8.18;;
62861;SDS011;48953;53.110;5.592;2023-03-01T09:21:05;15.20;;;9.73;;
62861;SDS011;48953;53.110;5.592;2023-03-01T09:23:37;13.90;;;10.20;;
62861;SDS011;48953;53.110;5.592;2023-03-01T09:26:05;13.75;;;9.93;;
62861;SDS011;48953;53.110;5.592;2023-03-01T09:28:31;12.60;;;8.95;;
62861;SDS011;48953;53.110;5.592;2023-03-01T09:30:58;15.68;;;9.50;;
62861;SDS011;48953;53.110;5.592;2023-03-01T09:33:24;15.13;;;10.57;;
62861;SDS011;48953;53.110;5.592;2023-03-01T09:35:55;17.20;;;11.68;;
62861;SDS011;48953;53.110;5.592;2023-03-01T09:38:24;15.50;;;11.13;;
62861;SDS011;48953;53.110;5.592;2023-03-01T09:40:50;15.55;;;10.82;;
62861;SDS011;48953;53.110;5.592;2023-03-01T09:46:03;17.98;;;10.73;;
62861;SDS011;48953;53.110;5.592;2023-03-01T09:48:33;14.70;;;10.95;;
62861;SDS011;48953;53.110;5.592;2023-03-01T09:51:02;19.48;;;11.18;;
62861;SDS011;48953;53.110;5.592;2023-03-01T09:53:33;14.60;;;11.05;;
62861;SDS011;48953;53.110;5.592;2023-03-01T09:56:12;16.42;;;10.95;;
62861;SDS011;48953;53.110;5.592;2023-03-01T10:04:00;18.52;;;12.13;;
62861;SDS011;48953;53.110;5.592;2023-03-01T10:06:28;15.80;;;10.82;;
62861;SDS011;48953;53.110;5.592;2023-03-01T10:08:56;15.43;;;10.85;;
62861;SDS011;48953;53.110;5.592;2023-03-01T10:11:28;14.77;;;11.48;;
62861;SDS011;48953;53.110;5.592;2023-03-01T10:14:07;16.05;;;11.13;;
62861;SDS011;48953;53.110;5.592;2023-03-01T10:16:40;13.63;;;10.15;;
62861;SDS011;48953;53.110;5.592;2023-03-01T10:19:09;15.73;;;11.05;;
62861;SDS011;48953;53.110;5.592;2023-03-01T10:21:38;15.63;;;10.83;;
62861;SDS011;48953;53.110;5.592;2023-03-01T10:24:10;15.93;;;11.32;;
62861;SDS011;48953;53.110;5.592;2023-03-01T10:26:46;16.02;;;10.52;;
62861;SDS011;48953;53.110;5.592;2023-03-01T10:29:13;15.38;;;11.20;;
62861;SDS011;48953;53.110;5.592;2023-03-01T10:34:18;15.65;;;11.05;;
62861;SDS011;48953;53.110;5.592;2023-03-01T10:36:49;17.40;;;11.90;;
62861;SDS011;48953;53.110;5.592;2023-03-01T10:39:20;20.10;;;10.80;;
62861;SDS011;48953;53.110;5.592;2023-03-01T10:47:00;19.90;;;12.77;;
62861;SDS011;48953;53.110;5.592;2023-03-01T10:49:27;17.63;;;12.80;;
62861;SDS011;48953;53.110;5.592;2023-03-01T10:51:54;20.33;;;12.95;;
62861;SDS011;48953;53.110;5.592;2023-03-01T10:56:59;16.67;;;12.77;;
62861;SDS011;48953;53.110;5.592;2023-03-01T10:59:30;17.00;;;10.32;;
62861;SDS011;48953;53.110;5.592;2023-03-01T11:04:54;18.08;;;12.65;;
62861;SDS011;48953;53.110;5.592;2023-03-01T11:07:21;17.88;;;13.02;;
62861;SDS011;48953;53.110;5.592;2023-03-01T11:09:47;19.48;;;11.98;;
62861;SDS011;48953;53.110;5.592;2023-03-01T11:12:13;17.98;;;11.98;;
62861;SDS011;48953;53.110;5.592;2023-03-01T11:14:45;19.27;;;13.15;;
62861;SDS011;48953;53.110;5.592;2023-03-01T11:17:18;19.88;;;11.00;;
62861;SDS011;48953;53.110;5.592;2023-03-01T11:20:06;16.52;;;12.25;;
62861;SDS011;48953;53.110;5.592;2023-03-01T11:22:35;18.55;;;13.27;;
62861;SDS011;48953;53.110;5.592;2023-03-01T11:25:02;16.25;;;12.45;;
62861;SDS011;48953;53.110;5.592;2023-03-01T11:27:31;17.42;;;12.70;;
62861;SDS011;48953;53.110;5.592;2023-03-01T11:30:02;19.55;;;11.93;;
62861;SDS011;48953;53.110;5.592;2023-03-01T11:32:34;22.45;;;13.40;;
62861;SDS011;48953;53.110;5.592;2023-03-01T11:35:04;16.63;;;11.20;;
62861;SDS011;48953;53.110;5.592;2023-03-01T11:45:18;17.10;;;11.73;;
62861;SDS011;48953;53.110;5.592;2023-03-01T11:48:02;17.50;;;12.00;;
62861;SDS011;48953;53.110;5.592;2023-03-01T11:50:47;15.88;;;11.05;;
62861;SDS011;48953;53.110;5.592;2023-03-01T12:00:58;18.92;;;12.35;;
62861;SDS011;48953;53.110;5.592;2023-03-01T12:11:46;17.17;;;11.30;;
62861;SDS011;48953;53.110;5.592;2023-03-01T12:22:21;18.25;;;11.15;;
62861;SDS011;48953;53.110;5.592;2023-03-01T12:46:07;16.40;;;11.43;;
62861;SDS011;48953;53.110;5.592;2023-03-01T12:51:10;16.60;;;11.27;;
62861;SDS011;48953;53.110;5.592;2023-03-01T12:53:40;15.10;;;10.98;;
62861;SDS011;48953;53.110;5.592;2023-03-01T12:56:07;10.05;;;7.95;;
62861;SDS011;48953;53.110;5.592;2023-03-01T12:58:36;15.55;;;11.07;;
62861;SDS011;48953;53.110;5.592;2023-03-01T13:11:41;18.90;;;12.00;;
62861;SDS011;48953;53.110;5.592;2023-03-01T13:16:46;18.00;;;11.80;;
62861;SDS011;48953;53.110;5.592;2023-03-01T13:19:21;15.57;;;11.75;;
62861;SDS011;48953;53.110;5.592;2023-03-01T13:21:48;17.20;;;10.63;;
62861;SDS011;48953;53.110;5.592;2023-03-01T13:29:47;17.52;;;11.30;;
62861;SDS011;48953;53.110;5.592;2023-03-01T13:32:23;18.75;;;12.20;;
62861;SDS011;48953;53.110;5.592;2023-03-01T13:34:53;17.63;;;12.23;;
62861;SDS011;48953;53.110;5.592;2023-03-01T13:39:46;18.45;;;11.32;;
62861;SDS011;48953;53.110;5.592;2023-03-01T13:42:30;15.73;;;10.57;;
62861;SDS011;48953;53.110;5.592;2023-03-01T13:44:57;15.75;;;10.15;;
62861;SDS011;48953;53.110;5.592;2023-03-01T13:47:23;18.02;;;11.65;;
62861;SDS011;48953;53.110;5.592;2023-03-01T13:54:47;15.35;;;9.73;;
62861;SDS011;48953;53.110;5.592;2023-03-01T13:57:18;14.38;;;9.40;;
62861;SDS011;48953;53.110;5.592;2023-03-01T13:59:47;16.48;;;9.43;;
62861;SDS011;48953;53.110;5.592;2023-03-01T14:02:13;13.70;;;9.05;;
62861;SDS011;48953;53.110;5.592;2023-03-01T14:04:39;14.70;;;10.88;;
62861;SDS011;48953;53.110;5.592;2023-03-01T14:07:09;18.17;;;10.73;;
62861;SDS011;48953;53.110;5.592;2023-03-01T14:09:36;16.15;;;10.52;;
62861;SDS011;48953;53.110;5.592;2023-03-01T14:12:06;16.08;;;10.55;;
62861;SDS011;48953;53.110;5.592;2023-03-01T14:20:29;15.82;;;10.70;;
62861;SDS011;48953;53.110;5.592;2023-03-01T14:22:58;14.63;;;9.80;;
62861;SDS011;48953;53.110;5.592;2023-03-01T14:28:10;15.32;;;10.77;;
62861;SDS011;48953;53.110;5.592;2023-03-01T14:30:43;15.85;;;9.00;;
62861;SDS011;48953;53.110;5.592;2023-03-01T14:33:42;12.13;;;8.10;;
62861;SDS011;48953;53.110;5.592;2023-03-01T14:36:03;15.00;;;9.93;;
62861;SDS011;48953;53.110;5.592;2023-03-01T14:40:57;15.93;;;10.00;;
62861;SDS011;48953;53.110;5.592;2023-03-01T14:43:23;16.23;;;10.88;;
62861;SDS011;48953;53.110;5.592;2023-03-01T14:45:51;18.98;;;11.13;;
62861;SDS011;48953;53.110;5.592;2023-03-01T14:48:17;13.65;;;8.23;;
62861;SDS011;48953;53.110;5.592;2023-03-01T14:50:44;18.13;;;10.35;;
62861;SDS011;48953;53.110;5.592;2023-03-01T14:53:15;15.55;;;9.82;;
62861;SDS011;48953;53.110;5.592;2023-03-01T14:55:44;16.70;;;10.52;;
62861;SDS011;48953;53.110;5.592;2023-03-01T14:58:13;18.90;;;10.48;;
62861;SDS011;48953;53.110;5.592;2023-03-01T15:00:41;18.95;;;10.07;;
62861;SDS011;48953;53.110;5.592;2023-03-01T15:03:14;21.30;;;11.25;;
62861;SDS011;48953;53.110;5.592;2023-03-01T15:05:41;17.95;;;10.38;;
62861;SDS011;48953;53.110;5.592;2023-03-01T15:11:00;17.92;;;10.77;;
62861;SDS011;48953;53.110;5.592;2023-03-01T15:13:29;19.63;;;11.20;;
62861;SDS011;48953;53.110;5.592;2023-03-01T15:16:02;13.30;;;8.02;;
62861;SDS011;48953;53.110;5.592;2023-03-01T15:18:29;19.33;;;11.40;;
62861;SDS011;48953;53.110;5.592;2023-03-01T15:20:56;16.50;;;9.98;;
62861;SDS011;48953;53.110;5.592;2023-03-01T15:23:30;16.88;;;9.50;;
62861;SDS011;48953;53.110;5.592;2023-03-01T15:25:56;17.02;;;9.98;;
62861;SDS011;48953;53.110;5.592;2023-03-01T15:28:24;19.42;;;9.73;;
62861;SDS011;48953;53.110;5.592;2023-03-01T15:30:55;17.80;;;9.10;;
62861;SDS011;48953;53.110;5.592;2023-03-01T15:35:49;16.23;;;8.70;;
62861;SDS011;48953;53.110;5.592;2023-03-01T15:38:26;20.50;;;10.60;;
62861;SDS011;48953;53.110;5.592;2023-03-01T15:40:52;14.00;;;9.30;;
62861;SDS011;48953;53.110;5.592;2023-03-01T15:43:37;15.68;;;9.57;;
62861;SDS011;48953;53.110;5.592;2023-03-01T15:46:03;18.88;;;9.95;;
62861;SDS011;48953;53.110;5.592;2023-03-01T15:48:30;14.35;;;9.35;;
62861;SDS011;48953;53.110;5.592;2023-03-01T15:50:57;16.35;;;9.70;;
62861;SDS011;48953;53.110;5.592;2023-03-01T15:53:24;14.27;;;9.90;;
62861;SDS011;48953;53.110;5.592;2023-03-01T15:55:52;15.80;;;10.30;;
62861;SDS011;48953;53.110;5.592;2023-03-01T15:58:19;17.40;;;10.38;;
62861;SDS011;48953;53.110;5.592;2023-03-01T16:00:46;16.48;;;10.00;;
62861;SDS011;48953;53.110;5.592;2023-03-01T16:03:13;13.82;;;8.13;;
62861;SDS011;48953;53.110;5.592;2023-03-01T16:05:39;16.83;;;9.43;;
62861;SDS011;48953;53.110;5.592;2023-03-01T16:08:05;15.10;;;9.35;;
62861;SDS011;48953;53.110;5.592;2023-03-01T16:10:32;16.00;;;9.48;;
62861;SDS011;48953;53.110;5.592;2023-03-01T16:12:58;17.15;;;9.80;;
62861;SDS011;48953;53.110;5.592;2023-03-01T16:15:26;13.68;;;8.00;;
62861;SDS011;48953;53.110;5.592;2023-03-01T16:17:53;18.00;;;8.45;;
62861;SDS011;48953;53.110;5.592;2023-03-01T16:20:19;15.55;;;8.90;;
62861;SDS011;48953;53.110;5.592;2023-03-01T16:22:45;16.05;;;9.00;;
62861;SDS011;48953;53.110;5.592;2023-03-01T16:25:15;13.02;;;8.02;;
62861;SDS011;48953;53.110;5.592;2023-03-01T16:30:07;14.18;;;8.63;;
62861;SDS011;48953;53.110;5.592;2023-03-01T16:32:37;15.70;;;8.90;;
62861;SDS011;48953;53.110;5.592;2023-03-01T16:35:04;14.40;;;7.45;;
62861;SDS011;48953;53.110;5.592;2023-03-01T16:37:32;15.45;;;9.35;;
62861;SDS011;48953;53.110;5.592;2023-03-01T16:39:58;17.05;;;10.48;;
62861;SDS011;48953;53.110;5.592;2023-03-01T16:42:25;15.35;;;9.95;;
62861;SDS011;48953;53.110;5.592;2023-03-01T16:44:54;16.73;;;9.65;;
62861;SDS011;48953;53.110;5.592;2023-03-01T16:47:20;15.07;;;8.95;;
62861;SDS011;48953;53.110;5.592;2023-03-01T16:49:46;16.77;;;10.30;;
62861;SDS011;48953;53.110;5.592;2023-03-01T16:52:12;16.60;;;9.05;;
62861;SDS011;48953;53.110;5.592;2023-03-01T16:54:38;15.05;;;8.77;;